Time;durP1;ratioP1;P1;durP2;ratioP2;P2;SDS_P1;SDS_P2;PMS_P1;PMS_P2;Temp;Humidity;BMP_temperature;BMP_pressure;BME280_temperature;BME280_humidity;BME280_pressure;Samples;Min_cycle;Max_cycle;Signal;HPM_P1;HPM_P2
2023/09/21 00:01:39;;;;;;;1.42;1.05;;;17.60;81.00;;;;;;4968784;28;20045;-63
2023/09/21 00:04:07;;;;;;;1.65;1.15;;;17.60;81.00;;;;;;4970050;28;20069;-63
2023/09/21 00:06:32;;;;;;;2.08;1.10;;;17.60;81.00;;;;;;4968508;28;20117;-63
2023/09/21 00:08:59;;;;;;;2.13;1.33;;;17.60;81.00;;;;;;4969981;28;20122;-63
2023/09/21 00:11:25;;;;;;;2.45;1.00;;;17.60;81.00;;;;;;4965887;28;20034;-62
2023/09/21 00:13:50;;;;;;;1.17;1.08;;;17.60;80.80;;;;;;4973906;28;20039;-63
2023/09/21 00:16:18;;;;;;;2.03;1.13;;;17.60;80.80;;;;;;4958812;28;20162;-63
2023/09/21 00:18:44;;;;;;;1.05;1.00;;;17.60;80.80;;;;;;4956111;28;20039;-63
2023/09/21 00:21:12;;;;;;;1.60;1.40;;;17.60;80.50;;;;;;4976249;28;20522;-63
2023/09/21 00:23:38;;;;;;;1.20;1.10;;;17.50;80.50;;;;;;4968985;28;20026;-63
2023/09/21 00:26:04;;;;;;;1.10;1.00;;;17.50;80.50;;;;;;4972700;28;20113;-63
2023/09/21 00:28:30;;;;;;;0.85;0.85;;;17.40;80.50;;;;;;4971959;28;20042;-63
2023/09/21 00:30:57;;;;;;;1.98;1.20;;;17.40;80.60;;;;;;4973234;28;20034;-63
2023/09/21 00:33:27;;;;;;;2.15;1.00;;;17.30;80.80;;;;;;4987645;28;20304;-63
2023/09/21 00:35:54;;;;;;;1.33;1.23;;;17.30;81.20;;;;;;4975559;28;20034;-62
2023/09/21 00:38:20;;;;;;;1.35;1.10;;;17.20;81.10;;;;;;4975938;28;20090;-63
2023/09/21 00:40:48;;;;;;;1.40;1.25;;;17.20;81.20;;;;;;4970393;28;20105;-63
2023/09/21 00:43:21;;;;;;;1.63;1.40;;;17.20;81.20;;;;;;4968411;28;20046;-63
2023/09/21 00:45:53;;;;;;;2.03;1.20;;;17.10;81.70;;;;;;4953646;28;20133;-63
2023/09/21 00:48:33;;;;;;;1.20;1.00;;;17.10;81.50;;;;;;4968837;28;20038;-63
2023/09/21 00:51:00;;;;;;;0.93;0.90;;;17.10;81.70;;;;;;4957222;28;20038;-63
2023/09/21 00:53:28;;;;;;;1.27;1.17;;;17.00;81.50;;;;;;4973530;28;20038;-63
2023/09/21 00:56:00;;;;;;;2.80;1.25;;;17.00;81.70;;;;;;4968375;28;20038;-63
2023/09/21 00:58:28;;;;;;;0.90;0.90;;;17.00;81.80;;;;;;4973460;28;20058;-63
2023/09/21 01:00:56;;;;;;;2.08;1.20;;;17.00;81.60;;;;;;4970514;28;20051;-63
2023/09/21 01:03:25;;;;;;;1.35;1.20;;;17.00;81.70;;;;;;4967889;28;20035;-62
2023/09/21 01:05:51;;;;;;;1.95;1.15;;;17.00;81.50;;;;;;4951293;28;20486;-63
2023/09/21 01:08:21;;;;;;;2.60;1.35;;;17.00;81.40;;;;;;4964635;28;20317;-63
2023/09/21 01:10:50;;;;;;;2.05;1.00;;;17.00;81.40;;;;;;4967854;28;20031;-63
2023/09/21 01:13:19;;;;;;;1.27;1.17;;;17.00;81.40;;;;;;4972240;28;20038;-63
2023/09/21 01:15:58;;;;;;;2.08;1.13;;;16.90;81.60;;;;;;4974435;28;20025;-61
2023/09/21 01:18:24;;;;;;;1.30;1.20;;;17.00;81.70;;;;;;4972830;28;20675;-63
2023/09/21 01:20:54;;;;;;;1.80;1.30;;;16.90;81.70;;;;;;4973926;28;20052;-63
2023/09/21 01:23:24;;;;;;;1.33;1.23;;;17.00;81.70;;;;;;4965401;28;20046;-62
2023/09/21 01:25:50;;;;;;;1.35;1.25;;;17.00;81.70;;;;;;4949840;28;20039;-63
2023/09/21 01:28:22;;;;;;;1.70;1.38;;;17.00;81.60;;;;;;4965961;28;20082;-63
2023/09/21 01:30:49;;;;;;;1.40;1.30;;;17.00;81.70;;;;;;4972530;28;20045;-63
2023/09/21 01:33:17;;;;;;;1.35;1.25;;;16.90;81.40;;;;;;4971718;28;20098;-63
2023/09/21 01:35:44;;;;;;;1.92;1.23;;;16.90;81.50;;;;;;4971269;28;20046;-63
2023/09/21 01:38:12;;;;;;;1.27;1.17;;;16.90;81.70;;;;;;4974266;28;20129;-62
2023/09/21 01:40:39;;;;;;;1.40;1.30;;;16.90;81.70;;;;;;4973164;28;20568;-63
2023/09/21 01:43:08;;;;;;;2.97;1.30;;;17.00;81.70;;;;;;4966896;28;20035;-62
2023/09/21 01:45:37;;;;;;;1.50;1.40;;;16.90;81.70;;;;;;4951906;28;20031;-63
2023/09/21 01:48:09;;;;;;;1.48;1.17;;;16.90;81.70;;;;;;4964430;28;20079;-63
2023/09/21 01:50:43;;;;;;;2.03;1.20;;;16.90;81.90;;;;;;4971744;28;20041;-62
2023/09/21 01:53:09;;;;;;;1.67;1.50;;;16.80;81.90;;;;;;4971346;28;20038;-63
2023/09/21 01:55:36;;;;;;;1.65;1.55;;;16.90;82.00;;;;;;4970212;28;20487;-63
2023/09/21 01:58:04;;;;;;;1.67;1.48;;;16.80;81.90;;;;;;4948157;28;20046;-62
2023/09/21 02:00:30;;;;;;;1.80;1.48;;;16.80;81.90;;;;;;4969758;28;20402;-63
2023/09/21 02:02:56;;;;;;;1.60;1.50;;;16.80;82.00;;;;;;4977676;28;20063;-63
2023/09/21 02:05:23;;;;;;;2.80;1.60;;;16.80;82.20;;;;;;4973139;28;20652;-63
2023/09/21 02:07:49;;;;;;;1.50;1.40;;;16.80;82.20;;;;;;4973816;28;20042;-62
2023/09/21 02:10:15;;;;;;;1.75;1.60;;;16.80;82.30;;;;;;4971881;28;20102;-62
2023/09/21 02:12:52;;;;;;;1.60;1.38;;;16.80;82.20;;;;;;4962760;28;20035;-62
2023/09/21 02:15:17;;;;;;;1.40;1.25;;;16.80;82.20;;;;;;4971570;28;20066;-63
2023/09/21 02:17:43;;;;;;;1.60;1.50;;;16.80;82.20;;;;;;4972471;28;20048;-63
2023/09/21 02:20:16;;;;;;;2.85;1.70;;;16.80;82.40;;;;;;4959477;28;20035;-63
2023/09/21 02:22:59;;;;;;;1.38;1.27;;;16.80;82.60;;;;;;4952888;28;20035;-63
2023/09/21 02:25:25;;;;;;;3.10;1.27;;;16.80;82.60;;;;;;4971991;28;20079;-63
2023/09/21 02:27:51;;;;;;;1.92;1.20;;;16.80;82.40;;;;;;4970750;28;20052;-63
2023/09/21 02:30:21;;;;;;;1.40;1.20;;;16.80;82.40;;;;;;4967758;28;20042;-63
2023/09/21 02:32:50;;;;;;;1.33;1.20;;;16.90;82.60;;;;;;4973264;28;20046;-62
2023/09/21 02:35:22;;;;;;;1.50;1.20;;;16.80;83.10;;;;;;4968712;28;20081;-63
2023/09/21 02:37:49;;;;;;;1.67;1.30;;;16.80;82.20;;;;;;4971480;28;20079;-63
2023/09/21 02:40:16;;;;;;;1.40;1.30;;;16.70;82.40;;;;;;4970885;28;20510;-63
2023/09/21 02:42:43;;;;;;;1.50;1.40;;;16.70;82.70;;;;;;4966347;28;20076;-63
2023/09/21 02:45:11;;;;;;;1.80;1.70;;;16.70;82.90;;;;;;4958669;28;20043;-63
2023/09/21 02:47:37;;;;;;;1.58;1.48;;;16.80;83.20;;;;;;4967660;28;20831;-62
2023/09/21 02:50:37;;;;;;;1.80;1.42;;;16.80;83.10;;;;;;4971708;28;20137;-62
2023/09/21 02:52:57;;;;;;;2.05;1.42;;;16.80;83.10;;;;;;4952070;28;20043;-63
2023/09/21 02:55:25;;;;;;;2.35;1.40;;;16.70;83.10;;;;;;4960916;28;20126;-62
2023/09/21 02:57:55;;;;;;;1.40;1.30;;;16.70;83.40;;;;;;4970270;28;20117;-63
2023/09/21 03:00:25;;;;;;;2.13;1.52;;;16.70;83.80;;;;;;4970305;28;20046;-63
2023/09/21 03:02:52;;;;;;;1.80;1.70;;;16.70;83.40;;;;;;4971468;28;20143;-63
2023/09/21 03:05:18;;;;;;;1.63;1.52;;;16.70;83.50;;;;;;4973371;28;20034;-63
2023/09/21 03:07:45;;;;;;;2.60;1.80;;;16.70;83.70;;;;;;4971649;28;20605;-63
2023/09/21 03:10:11;;;;;;;4.13;2.03;;;16.70;84.60;;;;;;4970480;28;20042;-63
2023/09/21 03:12:37;;;;;;;1.80;1.55;;;16.70;83.60;;;;;;4960536;28;20518;-62
2023/09/21 03:15:07;;;;;;;2.72;1.88;;;16.60;83.60;;;;;;4972813;28;20097;-63
2023/09/21 03:17:38;;;;;;;3.28;2.00;;;16.60;83.80;;;;;;4971667;28;20038;-63
2023/09/21 03:20:23;;;;;;;2.30;2.10;;;16.60;83.80;;;;;;4972961;28;20042;-63
2023/09/21 03:22:48;;;;;;;2.47;2.28;;;16.50;84.00;;;;;;4971948;28;20120;-63
2023/09/21 03:25:16;;;;;;;3.25;2.50;;;16.50;84.00;;;;;;4971753;28;20121;-63
2023/09/21 03:27:42;;;;;;;2.80;2.60;;;16.50;84.20;;;;;;4975564;28;20042;-62
2023/09/21 03:30:11;;;;;;;2.17;1.98;;;16.40;84.40;;;;;;4977551;28;20047;-63
2023/09/21 03:32:40;;;;;;;2.45;2.22;;;16.40;84.50;;;;;;4976018;28;20080;-61
2023/09/21 03:35:06;;;;;;;2.05;1.95;;;16.40;84.80;;;;;;4971867;28;20032;-63
2023/09/21 03:37:32;;;;;;;2.42;2.25;;;16.40;85.00;;;;;;4957342;28;20085;-63
2023/09/21 03:39:58;;;;;;;2.78;2.38;;;16.40;85.10;;;;;;4967813;28;20058;-63
2023/09/21 03:42:23;;;;;;;2.50;2.30;;;16.50;85.20;;;;;;4976121;28;20085;-63
2023/09/21 03:44:49;;;;;;;2.65;2.45;;;16.50;85.10;;;;;;4976623;28;20042;-62
2023/09/21 03:47:17;;;;;;;3.10;2.47;;;16.50;84.80;;;;;;4976867;28;20034;-63
2023/09/21 03:49:44;;;;;;;3.25;2.30;;;16.60;84.80;;;;;;4980719;28;20039;-63
2023/09/21 03:52:15;;;;;;;2.60;2.30;;;16.60;84.80;;;;;;4980922;28;20034;-63
2023/09/21 03:54:42;;;;;;;4.63;2.47;;;16.60;84.60;;;;;;4979046;28;20084;-63
2023/09/21 03:57:11;;;;;;;2.90;2.70;;;16.60;84.50;;;;;;4979141;28;20450;-63
2023/09/21 03:59:40;;;;;;;3.85;2.40;;;16.60;84.30;;;;;;4979491;28;20040;-63
2023/09/21 04:02:07;;;;;;;3.15;2.67;;;16.60;84.40;;;;;;4980957;28;20038;-63
2023/09/21 04:04:33;;;;;;;3.15;2.50;;;16.60;84.60;;;;;;4977688;28;20049;-62
2023/09/21 04:06:59;;;;;;;3.00;2.20;;;16.50;84.50;;;;;;4980565;28;20034;-62
2023/09/21 04:09:24;;;;;;;4.65;2.40;;;16.60;84.60;;;;;;4979067;28;20341;-63
2023/09/21 04:11:50;;;;;;;3.67;2.25;;;16.60;84.80;;;;;;4977299;28;20039;-63
2023/09/21 04:14:15;;;;;;;4.03;2.80;;;16.60;84.80;;;;;;4979562;28;20042;-62
2023/09/21 04:16:41;;;;;;;2.60;2.30;;;16.60;84.60;;;;;;4978102;28;20509;-63
2023/09/21 04:19:10;;;;;;;3.00;2.75;;;16.70;84.60;;;;;;4978913;28;20031;-63
2023/09/21 04:21:36;;;;;;;2.90;2.25;;;16.70;84.60;;;;;;4979218;28;20453;-63
2023/09/21 04:24:02;;;;;;;2.53;2.30;;;16.70;84.50;;;;;;4979479;28;20039;-63
2023/09/21 04:26:29;;;;;;;2.65;2.40;;;16.70;84.60;;;;;;4978024;28;20522;-62
2023/09/21 04:28:55;;;;;;;3.03;2.28;;;16.70;84.30;;;;;;4971832;28;20046;-63
2023/09/21 04:31:21;;;;;;;3.95;2.55;;;16.80;84.30;;;;;;4976055;28;20042;-63
2023/09/21 04:33:47;;;;;;;3.50;2.60;;;16.80;84.20;;;;;;4966682;28;20038;-63
2023/09/21 04:36:12;;;;;;;7.03;2.90;;;16.80;84.10;;;;;;4975405;28;20053;-62
2023/09/21 04:38:38;;;;;;;6.93;2.97;;;16.80;84.00;;;;;;4973923;28;20039;-63
2023/09/21 04:41:04;;;;;;;4.85;2.50;;;16.80;84.00;;;;;;4969823;28;20113;-62
2023/09/21 04:43:32;;;;;;;4.95;2.38;;;16.80;84.00;;;;;;4977035;28;20038;-61
2023/09/21 04:45:58;;;;;;;2.67;2.40;;;16.80;84.00;;;;;;4968204;28;20554;-63
2023/09/21 04:48:24;;;;;;;2.80;2.00;;;16.80;84.00;;;;;;4975419;28;20494;-63
2023/09/21 04:50:49;;;;;;;2.92;2.63;;;16.70;84.00;;;;;;4961805;28;20045;-63
2023/09/21 04:53:18;;;;;;;2.60;2.40;;;16.80;83.90;;;;;;4977061;28;20042;-63
2023/09/21 04:55:44;;;;;;;4.55;2.50;;;16.70;84.00;;;;;;4978200;28;20058;-62
2023/09/21 04:58:10;;;;;;;4.28;2.40;;;16.70;84.20;;;;;;4976230;28;20616;-62
2023/09/21 05:00:35;;;;;;;2.70;2.20;;;16.70;84.40;;;;;;4976446;28;20085;-62
2023/09/21 05:03:01;;;;;;;3.05;2.20;;;16.60;84.50;;;;;;4976758;28;20458;-63
2023/09/21 05:05:26;;;;;;;2.80;2.50;;;16.60;84.80;;;;;;4974576;28;20035;-63
2023/09/21 05:07:53;;;;;;;4.75;2.30;;;16.60;84.90;;;;;;4976952;28;20034;-63
2023/09/21 05:10:18;;;;;;;4.22;2.70;;;16.60;85.10;;;;;;4974692;28;20045;-63
2023/09/21 05:12:48;;;;;;;3.72;2.60;;;16.70;85.20;;;;;;4971655;28;20051;-63
2023/09/21 05:15:15;;;;;;;3.15;2.22;;;16.70;85.10;;;;;;4954356;28;20503;-62
2023/09/21 05:17:41;;;;;;;2.47;2.13;;;16.70;85.00;;;;;;4966555;28;20043;-62
2023/09/21 05:20:10;;;;;;;3.15;2.35;;;16.70;85.00;;;;;;4974997;28;20458;-63
2023/09/21 05:22:39;;;;;;;3.70;2.40;;;16.70;85.10;;;;;;4975693;28;20499;-63
2023/09/21 05:25:05;;;;;;;2.83;2.45;;;16.70;85.10;;;;;;4976328;28;20410;-63
2023/09/21 05:27:31;;;;;;;2.85;2.30;;;16.80;85.20;;;;;;4974563;28;20046;-63
2023/09/21 05:30:01;;;;;;;3.10;2.30;;;16.80;85.20;;;;;;4983195;28;20049;-62
2023/09/21 05:32:29;;;;;;;2.67;2.47;;;16.80;85.20;;;;;;4973316;28;20065;-63
2023/09/21 05:34:56;;;;;;;3.95;2.60;;;16.90;85.10;;;;;;4972929;28;20406;-63
2023/09/21 05:37:22;;;;;;;2.65;2.30;;;16.90;85.00;;;;;;4974636;28;20042;-63
2023/09/21 05:39:48;;;;;;;2.72;2.33;;;16.90;85.00;;;;;;4975644;28;20129;-63
2023/09/21 05:42:15;;;;;;;3.97;2.35;;;16.90;85.10;;;;;;4975959;28;20046;-63
2023/09/21 05:44:42;;;;;;;3.65;2.05;;;16.90;85.20;;;;;;4971989;28;20049;-63
2023/09/21 05:47:08;;;;;;;2.55;2.35;;;16.90;85.20;;;;;;4972600;28;20049;-62
2023/09/21 05:49:36;;;;;;;3.47;2.60;;;16.90;85.30;;;;;;4963604;28;20412;-63
2023/09/21 05:52:08;;;;;;;3.42;2.47;;;17.00;85.30;;;;;;4953964;28;20059;-63
2023/09/21 05:54:35;;;;;;;3.95;2.55;;;17.00;85.30;;;;;;4970687;28;20034;-62
2023/09/21 05:57:03;;;;;;;2.40;2.10;;;17.00;85.30;;;;;;4969873;28;20045;-63
2023/09/21 05:59:31;;;;;;;5.78;2.58;;;17.00;85.40;;;;;;4954047;28;20047;-63
2023/09/21 06:01:57;;;;;;;3.08;2.35;;;17.10;85.50;;;;;;4965770;28;20099;-63
2023/09/21 06:04:24;;;;;;;3.47;2.47;;;17.10;85.50;;;;;;4973606;28;20104;-61
2023/09/21 06:06:56;;;;;;;3.88;2.50;;;17.20;85.40;;;;;;4974902;28;20128;-62
2023/09/21 06:09:22;;;;;;;3.35;2.53;;;17.20;85.30;;;;;;4973939;28;20498;-63
2023/09/21 06:11:48;;;;;;;3.30;2.63;;;17.30;85.30;;;;;;4969638;28;20584;-63
2023/09/21 06:14:15;;;;;;;4.53;2.35;;;17.20;85.20;;;;;;4972034;28;20124;-62
2023/09/21 06:16:42;;;;;;;3.17;2.63;;;17.30;85.20;;;;;;4954026;28;20042;-63
2023/09/21 06:19:09;;;;;;;3.83;2.63;;;17.30;85.00;;;;;;4973716;28;20045;-63
2023/09/21 06:21:35;;;;;;;4.22;2.40;;;17.40;85.00;;;;;;4973052;28;20782;-62
2023/09/21 06:24:03;;;;;;;4.15;2.80;;;17.40;84.80;;;;;;4974679;28;20031;-63
2023/09/21 06:26:29;;;;;;;3.72;2.08;;;17.50;84.80;;;;;;4957026;28;20057;-63
2023/09/21 06:28:55;;;;;;;3.35;2.40;;;17.50;84.80;;;;;;4960023;28;20038;-63
2023/09/21 06:31:21;;;;;;;3.83;2.35;;;17.50;84.60;;;;;;4974755;28;20458;-63
2023/09/21 06:33:48;;;;;;;3.00;2.67;;;17.50;84.50;;;;;;4973353;28;20042;-63
2023/09/21 06:36:20;;;;;;;3.83;2.33;;;17.50;84.50;;;;;;4974260;28;20039;-63
2023/09/21 06:38:50;;;;;;;3.55;2.33;;;17.60;84.50;;;;;;4973335;28;20184;-62
2023/09/21 06:41:16;;;;;;;3.42;2.47;;;17.60;84.60;;;;;;4973370;28;20038;-62
2023/09/21 06:43:44;;;;;;;4.43;2.67;;;17.70;84.60;;;;;;4972525;28;20082;-63
2023/09/21 06:46:11;;;;;;;3.03;2.70;;;17.70;84.60;;;;;;4959736;28;20039;-62
2023/09/21 06:48:38;;;;;;;5.50;2.65;;;17.70;84.60;;;;;;4954908;28;20035;-63
2023/09/21 06:51:10;;;;;;;4.90;2.63;;;17.80;84.60;;;;;;4974761;28;20724;-63
2023/09/21 06:53:36;;;;;;;7.20;2.90;;;17.80;85.50;;;;;;4964018;28;20098;-62
2023/09/21 06:56:02;;;;;;;4.38;2.72;;;17.80;84.60;;;;;;4954632;28;20411;-63
2023/09/21 06:58:30;;;;;;;4.80;2.88;;;17.90;84.80;;;;;;4971941;28;20185;-62
2023/09/21 07:00:59;;;;;;;3.50;2.67;;;17.90;84.60;;;;;;4973703;28;20041;-63
2023/09/21 07:03:26;;;;;;;4.68;3.30;;;17.90;84.50;;;;;;4974707;28;20323;-63
2023/09/21 07:05:51;;;;;;;3.78;3.03;;;18.00;84.40;;;;;;4975521;28;20030;-63
2023/09/21 07:08:18;;;;;;;5.15;3.15;;;17.90;84.30;;;;;;4974107;28;20043;-63
2023/09/21 07:10:44;;;;;;;4.18;3.03;;;18.00;84.50;;;;;;4972374;28;20643;-63
2023/09/21 07:13:13;;;;;;;6.57;3.08;;;18.00;84.60;;;;;;4973760;28;20034;-63
2023/09/21 07:15:39;;;;;;;5.55;3.30;;;18.00;84.80;;;;;;4974490;28;20049;-63
2023/09/21 07:18:06;;;;;;;5.10;3.10;;;18.00;84.90;;;;;;4972691;28;20042;-63
2023/09/21 07:20:32;;;;;;;4.72;3.60;;;18.00;85.20;;;;;;4970492;28;20045;-62
2023/09/21 07:22:58;;;;;;;4.80;3.55;;;18.00;85.30;;;;;;4972539;28;20093;-63
2023/09/21 07:25:25;;;;;;;4.63;3.83;;;18.00;85.60;;;;;;4971367;28;20509;-63
2023/09/21 07:27:54;;;;;;;8.43;3.25;;;18.00;85.70;;;;;;4975778;28;20626;-63
2023/09/21 07:30:21;;;;;;;6.28;3.25;;;18.10;85.70;;;;;;4973625;28;20046;-63
2023/09/21 07:32:47;;;;;;;5.32;3.30;;;18.10;85.70;;;;;;4972787;28;20046;-63
2023/09/21 07:35:14;;;;;;;5.18;3.60;;;18.10;85.70;;;;;;4973485;28;20038;-63
2023/09/21 07:37:45;;;;;;;3.70;3.13;;;18.10;85.70;;;;;;4973815;28;20506;-63
2023/09/21 07:40:14;;;;;;;4.38;3.83;;;18.10;85.80;;;;;;4974461;28;20757;-63
2023/09/21 07:42:43;;;;;;;4.57;3.65;;;18.20;85.50;;;;;;4973281;28;20042;-63
2023/09/21 07:45:09;;;;;;;3.55;3.25;;;18.30;85.20;;;;;;4973880;28;20475;-63
2023/09/21 07:47:35;;;;;;;3.70;3.40;;;18.30;85.20;;;;;;4974062;28;20037;-63
2023/09/21 07:50:02;;;;;;;3.88;3.50;;;18.40;85.00;;;;;;4973900;28;20035;-62
2023/09/21 07:52:29;;;;;;;5.25;3.95;;;18.50;85.10;;;;;;4971378;28;20051;-63
2023/09/21 07:54:57;;;;;;;5.60;3.70;;;18.50;85.40;;;;;;4972644;28;20126;-63
2023/09/21 07:57:22;;;;;;;4.28;3.88;;;18.50;85.50;;;;;;4972798;28;20039;-63
2023/09/21 07:59:48;;;;;;;4.28;3.70;;;18.60;85.30;;;;;;4974397;28;20035;-63
2023/09/21 08:02:14;;;;;;;4.55;4.15;;;18.70;85.20;;;;;;4969990;28;20101;-63
2023/09/21 08:04:40;;;;;;;4.95;4.25;;;18.70;85.50;;;;;;4973683;28;20043;-63
2023/09/21 08:07:05;;;;;;;4.40;4.00;;;18.80;85.50;;;;;;4974765;28;20042;-63
2023/09/21 08:09:32;;;;;;;5.72;3.72;;;18.80;85.50;;;;;;4973720;28;20042;-63
2023/09/21 08:11:57;;;;;;;4.32;3.92;;;19.00;85.50;;;;;;4958706;28;20094;-62
2023/09/21 08:14:25;;;;;;;4.18;3.72;;;19.10;85.40;;;;;;4956269;28;20040;-63
2023/09/21 08:16:53;;;;;;;7.55;4.15;;;19.10;85.20;;;;;;4970370;28;20455;-63
2023/09/21 08:19:19;;;;;;;6.35;3.85;;;19.30;85.20;;;;;;4954069;28;20059;-63
2023/09/21 08:21:45;;;;;;;5.75;3.72;;;19.40;85.20;;;;;;4955571;28;20063;-63
2023/09/21 08:24:10;;;;;;;5.63;4.07;;;19.50;85.00;;;;;;4953685;28;20105;-63
2023/09/21 08:26:37;;;;;;;4.07;3.53;;;19.60;84.80;;;;;;4971768;28;20034;-63
2023/09/21 08:29:04;;;;;;;3.78;3.38;;;19.70;84.50;;;;;;4974270;28;20038;-63
2023/09/21 08:31:30;;;;;;;4.25;3.53;;;19.90;84.30;;;;;;4974361;28;20038;-63
2023/09/21 08:33:56;;;;;;;4.03;3.65;;;20.00;84.30;;;;;;4977100;28;20027;-63
2023/09/21 08:36:21;;;;;;;4.97;3.28;;;20.10;84.00;;;;;;4978772;28;20130;-63
2023/09/21 08:38:47;;;;;;;4.28;3.85;;;20.30;83.90;;;;;;4977472;28;20097;-63
2023/09/21 08:41:13;;;;;;;4.07;3.60;;;20.40;83.80;;;;;;4977748;28;20126;-62
2023/09/21 08:43:40;;;;;;;5.00;3.47;;;20.50;83.70;;;;;;4978147;28;20476;-63
2023/09/21 08:46:06;;;;;;;3.80;3.42;;;20.70;83.60;;;;;;4978081;28;20487;-63
2023/09/21 08:48:33;;;;;;;3.60;3.08;;;20.80;83.20;;;;;;4977896;28;20399;-63
2023/09/21 08:51:00;;;;;;;5.10;3.38;;;20.90;83.20;;;;;;4978076;28;20045;-63
2023/09/21 08:53:26;;;;;;;5.03;3.80;;;20.90;83.10;;;;;;4977905;28;20027;-63
2023/09/21 08:55:57;;;;;;;3.95;3.58;;;21.10;82.90;;;;;;4975221;28;20669;-64
2023/09/21 08:58:24;;;;;;;3.38;3.10;;;21.10;82.40;;;;;;4977593;28;20046;-63
2023/09/21 09:00:56;;;;;;;3.53;3.15;;;21.30;82.30;;;;;;4976646;28;20510;-63
2023/09/21 09:03:25;;;;;;;3.85;3.17;;;21.30;81.90;;;;;;4977153;28;20039;-63
2023/09/21 09:05:52;;;;;;;6.38;3.42;;;21.40;81.90;;;;;;4978196;28;20557;-63
2023/09/21 09:08:18;;;;;;;4.97;3.90;;;21.50;81.70;;;;;;4977658;28;20525;-63
2023/09/21 09:10:43;;;;;;;3.60;3.30;;;21.60;81.20;;;;;;4972978;28;20039;-63
2023/09/21 09:13:09;;;;;;;3.30;3.05;;;21.70;80.90;;;;;;4972245;28;20399;-63
2023/09/21 09:15:42;;;;;;;3.45;3.03;;;21.80;80.50;;;;;;4957442;28;20034;-63
2023/09/21 09:18:08;;;;;;;3.25;2.92;;;21.90;80.20;;;;;;4971579;28;20039;-63
2023/09/21 09:20:36;;;;;;;5.47;3.53;;;22.00;80.10;;;;;;4976822;28;20035;-62
2023/09/21 09:23:08;;;;;;;3.72;2.90;;;22.10;79.40;;;;;;4977418;28;20046;-63
2023/09/21 09:25:34;;;;;;;2.95;2.67;;;22.10;79.10;;;;;;4976816;28;20091;-63
2023/09/21 09:28:01;;;;;;;3.00;2.70;;;22.20;79.00;;;;;;4977128;28;20074;-64
2023/09/21 09:30:27;;;;;;;3.20;2.80;;;22.30;79.70;;;;;;4975083;28;20537;-63
2023/09/21 09:32:54;;;;;;;2.53;2.33;;;22.30;78.60;;;;;;4975798;28;20058;-63
2023/09/21 09:35:21;;;;;;;2.88;2.50;;;22.40;78.10;;;;;;4976351;28;20038;-63
2023/09/21 09:37:49;;;;;;;3.33;2.50;;;22.50;78.10;;;;;;4976410;28;20049;-63
2023/09/21 09:40:23;;;;;;;3.03;2.03;;;22.60;77.70;;;;;;4975673;28;20149;-63
2023/09/21 09:42:49;;;;;;;5.70;2.30;;;22.70;77.30;;;;;;4973741;28;20073;-63
2023/09/21 09:45:18;;;;;;;2.75;2.50;;;22.70;76.60;;;;;;4974628;28;20090;-63
2023/09/21 09:47:57;;;;;;;3.58;2.97;;;22.80;75.60;;;;;;4977156;28;20084;-62
2023/09/21 09:50:24;;;;;;;2.90;2.38;;;22.80;74.70;;;;;;4977010;28;20042;-63
2023/09/21 09:53:02;;;;;;;3.47;2.58;;;22.90;75.10;;;;;;4960250;28;20081;-63
2023/09/21 09:55:31;;;;;;;3.03;2.22;;;23.00;74.50;;;;;;4976725;28;20044;-63
2023/09/21 09:57:58;;;;;;;2.78;2.05;;;23.00;75.30;;;;;;4962833;28;20406;-63
2023/09/21 10:00:27;;;;;;;3.35;1.90;;;23.00;74.60;;;;;;4956643;28;20143;-63
2023/09/21 10:02:55;;;;;;;2.33;2.03;;;23.10;74.10;;;;;;4953628;28;20047;-63
2023/09/21 10:05:22;;;;;;;3.03;2.00;;;23.20;74.10;;;;;;4963972;28;20048;-63
2023/09/21 10:07:51;;;;;;;6.40;2.10;;;23.30;73.40;;;;;;4975518;28;20088;-63
2023/09/21 10:10:20;;;;;;;2.33;1.95;;;23.40;73.10;;;;;;4973844;28;20140;-63
2023/09/21 10:12:51;;;;;;;2.85;1.65;;;23.40;72.60;;;;;;4975394;28;20755;-63
2023/09/21 10:15:22;;;;;;;3.75;1.80;;;23.50;73.00;;;;;;4973579;28;20031;-64
2023/09/21 10:17:50;;;;;;;1.65;1.40;;;23.60;71.80;;;;;;4974521;28;20042;-63
2023/09/21 10:20:25;;;;;;;1.67;1.40;;;23.70;72.60;;;;;;4974502;28;20039;-63
2023/09/21 10:22:52;;;;;;;1.90;1.67;;;23.80;71.60;;;;;;4975869;28;20038;-63
2023/09/21 10:25:38;;;;;;;3.53;1.85;;;23.90;71.90;;;;;;4977110;28;20053;-63
2023/09/21 10:28:28;;;;;;;2.85;1.73;;;24.00;70.60;;;;;;4977396;28;20397;-63
2023/09/21 10:30:55;;;;;;;3.58;2.13;;;24.10;70.90;;;;;;4976787;28;20077;-63
2023/09/21 10:33:22;;;;;;;2.25;1.33;;;24.20;71.40;;;;;;4976961;28;20042;-63
2023/09/21 10:35:51;;;;;;;3.38;1.60;;;24.30;70.50;;;;;;4977081;28;20041;-63
2023/09/21 10:38:18;;;;;;;3.10;1.63;;;24.40;69.10;;;;;;4976917;28;20038;-63
2023/09/21 10:40:44;;;;;;;3.47;2.00;;;24.50;69.00;;;;;;4974744;28;20043;-63
2023/09/21 10:43:37;;;;;;;3.53;1.75;;;24.70;69.00;;;;;;4966527;28;20047;-63
2023/09/21 10:46:16;;;;;;;1.38;1.02;;;24.80;67.30;;;;;;4954630;28;20422;-64
2023/09/21 10:48:44;;;;;;;1.75;0.90;;;24.90;67.90;;;;;;4954554;28;20035;-63
2023/09/21 10:51:10;;;;;;;1.85;1.30;;;25.00;67.70;;;;;;4955559;28;20042;-63
2023/09/21 10:53:37;;;;;;;1.80;1.40;;;25.10;67.40;;;;;;4955716;28;20537;-63
2023/09/21 10:56:02;;;;;;;2.47;1.00;;;25.10;67.20;;;;;;4967591;28;20045;-64
2023/09/21 10:58:32;;;;;;;2.33;0.70;;;25.20;66.30;;;;;;4968009;28;20593;-64
2023/09/21 11:01:00;;;;;;;4.63;1.00;;;25.30;64.60;;;;;;4969667;28;20035;-63
2023/09/21 11:03:29;;;;;;;0.95;0.60;;;25.40;64.60;;;;;;4963024;28;20046;-63
2023/09/21 11:05:56;;;;;;;1.15;0.70;;;25.50;63.70;;;;;;4975274;28;20129;-63
2023/09/21 11:08:24;;;;;;;1.02;0.80;;;25.60;62.80;;;;;;4976023;28;20088;-63
2023/09/21 11:10:50;;;;;;;0.98;0.50;;;25.70;60.70;;;;;;4942788;28;20063;-63
2023/09/21 11:13:19;;;;;;;0.55;0.55;;;25.80;61.10;;;;;;4962368;28;20038;-63
2023/09/21 11:15:46;;;;;;;3.80;0.63;;;25.90;59.50;;;;;;4974357;28;20038;-63
2023/09/21 11:18:11;;;;;;;0.85;0.55;;;25.90;59.70;;;;;;4974326;28;20141;-63
2023/09/21 11:20:40;;;;;;;0.88;0.50;;;26.00;59.60;;;;;;4974560;28;20128;-63
2023/09/21 11:23:07;;;;;;;2.17;0.57;;;26.10;59.10;;;;;;4974905;28;20046;-63
2023/09/21 11:25:33;;;;;;;0.70;0.47;;;26.10;58.50;;;;;;4974193;28;20078;-63
2023/09/21 11:27:59;;;;;;;2.15;0.50;;;26.20;58.30;;;;;;4975003;28;20065;-63
2023/09/21 11:30:25;;;;;;;2.05;0.50;;;26.20;58.40;;;;;;4975608;28;20158;-63
2023/09/21 11:32:54;;;;;;;2.55;0.60;;;26.30;58.70;;;;;;4974084;28;20612;-63
2023/09/21 11:35:21;;;;;;;1.42;0.60;;;26.30;58.30;;;;;;4973863;28;20038;-63
2023/09/21 11:37:49;;;;;;;1.30;0.60;;;26.40;58.00;;;;;;4975230;28;20041;-63
2023/09/21 11:40:21;;;;;;;2.08;0.60;;;26.40;57.10;;;;;;4975452;28;20114;-63
2023/09/21 11:42:47;;;;;;;0.90;0.50;;;26.50;57.50;;;;;;4974645;28;20053;-63
2023/09/21 11:45:24;;;;;;;3.83;0.50;;;26.50;57.20;;;;;;4974194;28;20098;-63
2023/09/21 11:47:54;;;;;;;1.60;0.68;;;26.50;56.80;;;;;;4974787;28;20031;-63
2023/09/21 11:50:22;;;;;;;0.70;0.50;;;26.60;57.00;;;;;;4975056;28;20082;-63
2023/09/21 11:52:54;;;;;;;1.00;0.68;;;26.60;56.90;;;;;;4974456;28;20038;-63
2023/09/21 11:55:23;;;;;;;0.90;0.63;;;26.60;56.60;;;;;;4974159;28;20042;-63
2023/09/21 11:57:49;;;;;;;1.95;1.00;;;26.60;57.10;;;;;;4974096;28;20138;-63
2023/09/21 12:00:26;;;;;;;1.67;0.68;;;26.60;57.00;;;;;;4974633;28;20156;-63
2023/09/21 12:02:53;;;;;;;1.88;0.80;;;26.60;56.90;;;;;;4973766;28;20086;-63
2023/09/21 12:05:20;;;;;;;1.10;0.60;;;26.60;56.80;;;;;;4974507;28;20449;-63
2023/09/21 12:07:46;;;;;;;2.10;0.63;;;26.60;56.80;;;;;;4973656;28;20043;-63
2023/09/21 12:10:13;;;;;;;0.75;0.55;;;26.70;56.40;;;;;;4977696;28;20038;-63
2023/09/21 12:12:40;;;;;;;1.95;0.50;;;26.70;56.00;;;;;;4971454;28;20043;-64
2023/09/21 12:15:06;;;;;;;1.52;0.55;;;26.80;55.70;;;;;;4977183;28;20162;-63
2023/09/21 12:17:32;;;;;;;0.45;0.45;;;26.80;56.00;;;;;;4977624;28;20097;-63
2023/09/21 12:19:59;;;;;;;0.95;0.55;;;26.90;55.30;;;;;;4977736;28;20567;-63
2023/09/21 12:22:26;;;;;;;1.77;0.50;;;26.90;55.30;;;;;;4975612;28;20097;-63
2023/09/21 12:24:54;;;;;;;1.50;0.52;;;26.90;55.10;;;;;;4976001;28;20045;-63
2023/09/21 12:27:20;;;;;;;1.50;0.70;;;26.90;54.90;;;;;;4976689;28;20034;-63
2023/09/21 12:29:45;;;;;;;1.02;0.60;;;26.90;54.90;;;;;;4976653;28;20042;-63
2023/09/21 12:32:11;;;;;;;1.60;0.70;;;27.00;55.00;;;;;;4978157;28;20407;-62
2023/09/21 12:34:37;;;;;;;3.92;0.60;;;27.00;54.30;;;;;;4974755;28;20434;-64
2023/09/21 12:37:05;;;;;;;1.02;0.60;;;27.00;54.20;;;;;;4978718;28;20065;-63
2023/09/21 12:39:31;;;;;;;1.25;0.65;;;27.10;54.20;;;;;;4978228;28;20503;-63
2023/09/21 12:41:56;;;;;;;2.05;0.70;;;27.10;53.90;;;;;;4977805;28;20043;-63
2023/09/21 12:44:22;;;;;;;1.60;0.60;;;27.10;53.50;;;;;;4977202;28;20042;-63
2023/09/21 12:46:48;;;;;;;1.92;0.57;;;27.10;53.30;;;;;;4978435;28;20066;-63
2023/09/21 12:49:14;;;;;;;2.40;0.90;;;27.10;53.10;;;;;;4978693;28;20139;-63
2023/09/21 12:51:44;;;;;;;2.55;0.80;;;27.10;53.30;;;;;;4977244;28;20561;-63